• Join FlightAware (Why Join?)
  • Login
  • US Flag 
04:36PM EDT


 

Airport Tracker/Info


-or-


 

Live Flight TrackerFlight Track Log ✈ UAL33 ✈ 11-Sep-2013 ✈ RJAA / NRT - KLAX

Flight Track Log - Related Links

Times and Time Zones

All times are in EDT time to prevent confusion due to time zone crossing. See the UAL33 flight status page for this flight to view local times or setup timezone preferences in your user account.

Time Position Orientation Groundspeed Altitude Reporting Facility
EDT Latitude Longitude Course Direction KTS MPH feet Rate Location/Type
04:45AM 35.7790 140.3650 328° Northwest 177 204 1,200  Level FlightAware
04:45AM 35.7900 140.3570 329° Northwest 180 207 1,800 1,860 Climbing FlightAware
04:46AM 35.8050 140.3460 329° Northwest 190 219 2,300 1,920 Climbing FlightAware
04:46AM 35.8210 140.3350 331° Northwest 190 219 3,100 1,860 Climbing FlightAware
04:46AM 35.8390 140.3220 330° Northwest 210 242 3,700 1,200 Climbing FlightAware
04:47AM 35.8570 140.3090 330° Northwest 238 274 4,000 1,140 Climbing FlightAware
04:47AM 35.8780 140.2930 328° Northwest 260 299 4,500 1,500 Climbing FlightAware
04:47AM 35.8960 140.2840 338° Northwest 276 318 4,900 1,800 Climbing FlightAware
04:47AM 35.9060 140.2830 355° North 277 319 5,200 2,400 Climbing FlightAware
04:48AM 35.9340 140.2980 23° Northeast 277 319 6,200 2,400 Climbing FlightAware
04:48AM 35.9400 140.3070 51° Northeast 279 321 6,500 1,500 Climbing FlightAware
04:48AM 35.9440 140.3180 66° East 280 322 6,600 1,500 Climbing FlightAware
04:48AM 35.9460 140.3250 71° East 280 322 6,800 2,160 Climbing FlightAware
04:48AM 35.9470 140.3340 82° East 280 322 7,000 1,980 Climbing FlightAware
04:49AM 35.9430 140.3580 102° East 276 318 7,700 2,400 Climbing FlightAware
04:49AM 35.9240 140.4030 118° Southeast 290 334 8,800 2,520 Climbing FlightAware
04:49AM 35.9080 140.4310 125° Southeast 296 341 9,600 1,920 Climbing FlightAware
04:50AM 35.8780 140.4800 127° Southeast 319 367 10,600 1,500 Climbing FlightAware
04:50AM 35.8430 140.5360 128° Southeast 355 409 11,400 1,740 Climbing FlightAware
04:51AM 35.8110 140.5880 127° Southeast 367 422 12,600 1,740 Climbing FlightAware
04:52AM 35.7720 140.6510 127° Southeast 398 458 13,400 1,560 Climbing FlightAware
04:52AM 35.7310 140.7160 128° Southeast 416 479 14,500 1,320 Climbing FlightAware
04:53AM 35.6870 140.7870 127° Southeast 447 514 15,000 480 Climbing FlightAware
04:53AM 35.6440 140.8560 127° Southeast 453 521 15,100 2,400 Climbing FlightAware
04:54AM 35.6000 140.9270 127° Southeast 418 481 17,800 3,300 Climbing FlightAware
04:55AM 35.5660 141.0020 119° Southeast 422 486 19,200 1,980 Climbing FlightAware
04:55AM 35.5640 141.1270 91° East 437 503 20,800 1,860 Climbing FlightAware
04:56AM 35.5790 141.2120 78° East 445 512 21,900 1,620 Climbing FlightAware
04:57AM 35.5930 141.3020 79° East 450 518 22,800 1,500 Climbing FlightAware
04:57AM 35.5930 141.4000 90° East 458 527 23,800 1,380 Climbing FlightAware
04:58AM 35.5910 141.4960 91° East 467 537 24,600 1,260 Climbing FlightAware
04:59AM 35.5860 141.5960 93° East 476 548 25,400 1,320 Climbing FlightAware
04:59AM 35.5810 141.7040 93° East 484 557 26,300 1,260 Climbing FlightAware
05:00AM 35.5770 141.8070 93° East 491 565 27,100 1,260 Climbing FlightAware
05:00AM 35.5730 141.8940 93° East 494 568 27,900 1,320 Climbing FlightAware
05:01AM 35.5670 142.0630 92° East 502 578 29,100 1,140 Climbing FlightAware
05:02AM 35.5630 142.1570 93° East 510 587 29,600 900 Climbing FlightAware
05:02AM 35.5570 142.2660 94° East 516 594 30,200 1,080 Climbing FlightAware
05:03AM 35.5510 142.3670 94° East 518 596 30,900 1,200 Climbing FlightAware
05:04AM 35.5520 142.4990 89° East 520 598 31,800 1,080 Climbing FlightAware
05:04AM 35.5700 142.5960 77° East 524 603 32,400 960 Climbing FlightAware
05:05AM 35.5940 142.7100 75° East 530 610 33,000 900 Climbing FlightAware
05:06AM 35.6170 142.8180 75° East 533 613 33,600 1,260 Climbing FlightAware
05:06AM 35.6400 142.9300 76° East 527 606 34,600 1,440 Climbing FlightAware
05:07AM 35.6600 143.0270 76° East 526 605 35,300 1,080 Climbing FlightAware
05:07AM 35.6820 143.1320 76° East 526 605 35,900 840 Climbing FlightAware
05:08AM 35.7110 143.2680 75° East 526 605 36,500 780 Climbing FlightAware
05:09AM 35.7340 143.3800 76° East 528 608 37,000 360 Climbing FlightAware
05:10AM 35.7580 143.4970 76° East 532 612 37,000  Level FlightAware
05:10AM 35.7780 143.5860 74° East 532 612 37,000  Level FlightAware
05:11AM 35.8060 143.7350 77° East 537 618 37,000  Level FlightAware
05:11AM 35.8270 143.8390 76° East 539 620 37,000  Level FlightAware
05:12AM 35.8580 143.9910 76° East 540 621 37,000  Level FlightAware
05:13AM 35.8760 144.0830 76° East 540 621 37,000  Level FlightAware
05:14AM 35.8950 144.1740 76° East 540 621 37,000  Level FlightAware
05:14AM 35.9140 144.2690 76° East 540 621 37,000  Level FlightAware
05:15AM 35.9320 144.3600 76° East 540 621 37,000  Level FlightAware
05:15AM 35.9510 144.4520 76° East 540 621 37,000  Level FlightAware
05:16AM 35.9890 144.6600 77° East 537 618 37,000  Level FlightAware
05:17AM 36.0100 144.7660 76° East 538 619 37,000  Level FlightAware
05:17AM 36.0310 144.8790 77° East 539 620 37,000  Level FlightAware
05:18AM 36.0600 145.0330 77° East 540 621 37,000  Level FlightAware
05:19AM 36.0780 145.1250 76° East 540 621 37,000  Level FlightAware
05:19AM 36.0940 145.2120 77° East 540 621 37,000  Level FlightAware
05:20AM 36.1110 145.3040 77° East 540 621 37,000  Level FlightAware
05:21AM 36.1280 145.3960 77° East 540 621 37,000  Level FlightAware
05:21AM 36.1460 145.4910 77° East 540 621 37,000  Level FlightAware
05:22AM 36.1630 145.5840 77° East 540 621 37,000  Level FlightAware
05:22AM 36.1800 145.6760 77° East 540 621 37,000  Level FlightAware
05:23AM 36.1970 145.7680 77° East 540 621 37,000  Level FlightAware
05:24AM 36.2150 145.8600 76° East 540 621 37,000  Level FlightAware
05:24AM 36.2310 145.9480 77° East 540 621 37,000  Level FlightAware
05:25AM 36.2480 146.0400 77° East 540 621 37,000  Level FlightAware
05:25AM 36.2650 146.1320 77° East 540 621 37,000  Level FlightAware
05:26AM 36.2830 146.2270 77° East 540 621 37,000  Level FlightAware
05:27AM 36.3000 146.3200 77° East 540 621 37,000  Level FlightAware
05:27AM 36.3170 146.4120 77° East 540 621 37,000  Level FlightAware
05:30AM 36.4335 146.8219 70° East  Level FlightAware Approximate
05:31AM 36.4819 146.9942 71° East  Level FlightAware Approximate
05:32AM 36.5301 147.1668 71° East  Level FlightAware Approximate
05:33AM 36.5781 147.3396 71° East  Level FlightAware Approximate
05:34AM 36.6258 147.5126 71° East  Level FlightAware Approximate
05:35AM 36.6732 147.6858 71° East  Level FlightAware Approximate
05:36AM 36.7204 147.8592 71° East  Level FlightAware Approximate
05:37AM 36.7674 148.0329 71° East  Level FlightAware Approximate
05:38AM 36.8141 148.2067 71° East  Level FlightAware Approximate
05:39AM 36.8605 148.3808 72° East  Level FlightAware Approximate
05:40AM 36.8912 148.5628 84° East  Level FlightAware Approximate
05:41AM 36.9060 148.7455 84° East  Level FlightAware Approximate
05:42AM 36.9206 148.9283 84° East  Level FlightAware Approximate
05:43AM 36.9348 149.1111 84° East  Level FlightAware Approximate
05:44AM 36.9488 149.2940 84° East  Level FlightAware Approximate
05:45AM 36.9624 149.4770 85° East  Level FlightAware Approximate
05:46AM 36.9759 149.6600 85° East  Level FlightAware Approximate
05:47AM 36.9890 149.8431 85° East  Level FlightAware Approximate
05:48AM 37.0063 150.0251 73° East  Level FlightAware Approximate
05:49AM 37.0498 150.2008 73° East  Level FlightAware Approximate
05:50AM 37.0931 150.3767 73° East  Level FlightAware Approximate
05:51AM 37.1361 150.5527 73° East  Level FlightAware Approximate
05:52AM 37.1789 150.7290 73° East  Level FlightAware Approximate
05:53AM 37.2214 150.9055 73° East  Level FlightAware Approximate
05:54AM 37.2636 151.0822 73° East  Level FlightAware Approximate
05:55AM 37.3056 151.2590 73° East  Level FlightAware Approximate
05:56AM 37.3473 151.4361 73° East  Level FlightAware Approximate
05:57AM 37.3888 151.6133 74° East  Level FlightAware Approximate
05:58AM 37.4300 151.7908 74° East  Level FlightAware Approximate
05:59AM 37.4709 151.9684 74° East  Level FlightAware Approximate
06:00AM 37.5115 152.1463 74° East  Level FlightAware Approximate
06:01AM 37.5518 152.3244 74° East  Level FlightAware Approximate
06:02AM 37.5918 152.5026 74° East  Level FlightAware Approximate
06:03AM 37.6315 152.6811 74° East  Level FlightAware Approximate
06:04AM 37.6710 152.8597 74° East  Level FlightAware Approximate
06:05AM 37.7103 153.0385 74° East  Level FlightAware Approximate
06:06AM 37.7492 153.2175 75° East  Level FlightAware Approximate
06:07AM 37.7879 153.3967 75° East  Level FlightAware Approximate
06:08AM 37.8263 153.5761 75° East  Level FlightAware Approximate
06:09AM 37.8645 153.7557 75° East  Level FlightAware Approximate
06:10AM 37.9023 153.9355 75° East  Level FlightAware Approximate
06:11AM 37.9399 154.1154 75° East  Level FlightAware Approximate
06:12AM 37.9772 154.2956 75° East  Level FlightAware Approximate
06:13AM 38.0143 154.4759 75° East  Level FlightAware Approximate
06:14AM 38.0510 154.6564 75° East  Level FlightAware Approximate
06:15AM 38.0875 154.8370 76° East  Level FlightAware Approximate
06:16AM 38.1238 155.0179 76° East  Level FlightAware Approximate
06:17AM 38.1597 155.1989 76° East  Level FlightAware Approximate
06:18AM 38.1954 155.3801 76° East  Level FlightAware Approximate
06:19AM 38.2307 155.5615 76° East  Level FlightAware Approximate
06:20AM 38.2658 155.7431 76° East  Level FlightAware Approximate
06:21AM 38.3007 155.9248 76° East  Level FlightAware Approximate
06:22AM 38.3352 156.1067 76° East  Level FlightAware Approximate
06:23AM 38.3695 156.2888 76° East  Level FlightAware Approximate
06:24AM 38.4034 156.4711 77° East  Level FlightAware Approximate
06:25AM 38.4371 156.6535 77° East  Level FlightAware Approximate
06:26AM 38.4706 156.8361 77° East  Level FlightAware Approximate
06:27AM 38.5037 157.0189 77° East  Level FlightAware Approximate
06:28AM 38.5365 157.2018 77° East  Level FlightAware Approximate
06:29AM 38.5691 157.3849 77° East  Level FlightAware Approximate
06:30AM 38.6013 157.5682 77° East  Level FlightAware Approximate
06:31AM 38.6333 157.7516 77° East  Level FlightAware Approximate
06:32AM 38.6650 157.9352 77° East  Level FlightAware Approximate
06:33AM 38.6964 158.1189 78° East  Level FlightAware Approximate
06:34AM 38.7276 158.3029 78° East  Level FlightAware Approximate
06:35AM 38.7584 158.4869 78° East  Level FlightAware Approximate
06:36AM 38.7890 158.6712 78° East  Level FlightAware Approximate
06:37AM 38.8192 158.8555 78° East  Level FlightAware Approximate
06:38AM 38.8492 159.0401 78° East  Level FlightAware Approximate
06:39AM 38.8789 159.2248 78° East  Level FlightAware Approximate
06:40AM 38.9083 159.4097 78° East  Level FlightAware Approximate
06:41AM 38.9374 159.5947 79° East  Level FlightAware Approximate
06:42AM 38.9662 159.7798 79° East  Level FlightAware Approximate
06:43AM 38.9947 159.9651 79° East  Level FlightAware Approximate
06:44AM 39.0355 160.1465 73° East  Level FlightAware Approximate
06:45AM 39.0789 160.3271 73° East  Level FlightAware Approximate
06:46AM 39.1221 160.5080 73° East  Level FlightAware Approximate
06:47AM 39.1651 160.6894 73° East  Level FlightAware Approximate
06:48AM 39.2078 160.8710 73° East  Level FlightAware Approximate
06:49AM 39.2502 161.0529 73° East  Level FlightAware Approximate
06:50AM 39.2923 161.2350 73° East  Level FlightAware Approximate
06:51AM 39.3342 161.4173 73° East  Level FlightAware Approximate
06:52AM 39.3757 161.5998 74° East  Level FlightAware Approximate
06:53AM 39.4183 161.7820 73° East  Level FlightAware Approximate
06:54AM 39.4608 161.9644 73° East  Level FlightAware Approximate
06:55AM 39.5031 162.1469 73° East  Level FlightAware Approximate
06:56AM 39.5450 162.3297 73° East  Level FlightAware Approximate
06:57AM 39.5867 162.5128 73° East  Level FlightAware Approximate
06:58AM 39.6281 162.6960 74° East  Level FlightAware Approximate
06:59AM 39.6692 162.8794 74° East  Level FlightAware Approximate
07:00AM 39.7100 163.0631 74° East  Level FlightAware Approximate
07:01AM 39.7506 163.2470 74° East  Level FlightAware Approximate
07:02AM 39.7908 163.4311 74° East  Level FlightAware Approximate
07:03AM 39.8307 163.6154 74° East  Level FlightAware Approximate
07:04AM 39.8704 163.8000 74° East  Level FlightAware Approximate
07:05AM 39.9098 163.9847 74° East  Level FlightAware Approximate
07:06AM 39.9488 164.1697 75° East  Level FlightAware Approximate
07:07AM 39.9876 164.3548 75° East  Level FlightAware Approximate
07:08AM 40.0261 164.5402 75° East  Level FlightAware Approximate
07:09AM 40.0643 164.7258 75° East  Level FlightAware Approximate
07:10AM 40.1021 164.9116 75° East  Level FlightAware Approximate
07:11AM 40.1387 165.0979 76° East  Level FlightAware Approximate
07:12AM 40.1743 165.2847 76° East  Level FlightAware Approximate
07:13AM 40.2096 165.4716 76° East  Level FlightAware Approximate
07:14AM 40.2446 165.6588 76° East  Level FlightAware Approximate
07:15AM 40.2793 165.8461 76° East  Level FlightAware Approximate
07:16AM 40.3137 166.0337 76° East  Level FlightAware Approximate
07:17AM 40.3478 166.2214 77° East  Level FlightAware Approximate
07:17AM 40.5333 167.2167 77° East 564 649 39,000  Level Oakland Oceanic (ODAPS)
07:18AM 40.3833 166.4088 76° East  Level FlightAware Approximate
07:19AM 40.4185 166.5963 76° East  Level FlightAware Approximate
07:20AM 40.4535 166.7841 76° East  Level FlightAware Approximate
07:21AM 40.4882 166.9720 76° East  Level FlightAware Approximate
07:22AM 40.5225 167.1602 76° East  Level FlightAware Approximate
07:23AM 40.7415 168.4047 77° East 564 649 39,000  Level FlightAware Transoceanic
07:24AM 40.7750 168.6035 78° East 564 649 39,000  Level FlightAware Transoceanic
07:25AM 40.8082 168.8024 78° East 564 649 39,000  Level FlightAware Transoceanic
07:26AM 40.8410 169.0015 78° East 564 649 39,000  Level FlightAware Transoceanic
07:27AM 40.8735 169.2008 78° East 564 649 39,000  Level FlightAware Transoceanic
07:28AM 40.9057 169.4003 78° East 564 649 39,000  Level FlightAware Transoceanic
07:29AM 40.9374 169.6000 78° East 564 649 39,000  Level FlightAware Transoceanic
07:30AM 40.9689 169.7999 78° East 564 649 39,000  Level FlightAware Transoceanic
07:31AM 41.0000 170.0000 65° Northeast 564 649 39,000  Level FlightAware Transoceanic
07:31AM 41.0167 170.0333 65° Northeast 578 665 39,000  Level Oakland Oceanic (ODAPS)
07:31AM 41.0500 170.1500 65° Northeast 577 664 39,000  Level Oakland Oceanic (ODAPS)
07:32AM 41.0682 170.1905 65° Northeast 564 649 39,000  Level FlightAware Transoceanic
07:32AM 41.0667 170.2000 65° Northeast 577 664 39,000  Level Oakland Oceanic (ODAPS)
07:33AM 41.1362 170.3813 65° Northeast 564 649 39,000  Level FlightAware Transoceanic
07:34AM 41.2038 170.5726 65° Northeast 564 649 39,000  Level FlightAware Transoceanic
07:35AM 41.2711 170.7642 65° Northeast 564 649 39,000  Level FlightAware Transoceanic
07:36AM 41.3381 170.9563 65° Northeast 564 649 39,000  Level FlightAware Transoceanic
07:37AM 41.4191 171.1785 65° Northeast 578 665 39,000  Level FlightAware Transoceanic
07:38AM 41.4696 171.3500 65° Northeast 577 664 39,000  Level FlightAware Transoceanic
07:39AM 41.5357 171.5430 66° East 577 664 39,000  Level FlightAware Transoceanic
07:40AM 41.6014 171.7364 66° East 577 664 39,000  Level FlightAware Transoceanic
07:41AM 41.6668 171.9303 66° East 577 664 39,000  Level FlightAware Transoceanic
07:42AM 41.7319 172.1245 66° East 577 664 39,000  Level FlightAware Transoceanic
07:43AM 41.7966 172.3191 66° East 577 664 39,000  Level FlightAware Transoceanic
07:44AM 41.8610 172.5141 66° East 577 664 39,000  Level FlightAware Transoceanic
07:45AM 41.9251 172.7095 66° East 577 664 39,000  Level FlightAware Transoceanic
07:45AM 41.9500 172.7500 66° East 589 678 39,000  Level Oakland Oceanic (ODAPS)
07:46AM 41.9888 172.9053 66° East 577 664 39,000  Level FlightAware Transoceanic
07:47AM 42.0522 173.1015 67° East 577 664 39,000  Level FlightAware Transoceanic
07:48AM 42.1153 173.2980 67° East 577 664 39,000  Level FlightAware Transoceanic
07:49AM 42.1781 173.4950 67° East 577 664 39,000  Level FlightAware Transoceanic
07:50AM 42.2405 173.6924 67° East 577 664 39,000  Level FlightAware Transoceanic
07:51AM 42.3230 173.9244 67° East 589 678 39,000  Level FlightAware Transoceanic
07:52AM 42.3839 174.1215 67° East 589 678 39,000  Level FlightAware Transoceanic
07:53AM 42.4446 174.3190 67° East 589 678 39,000  Level FlightAware Transoceanic
07:54AM 42.5049 174.5168 68° East 589 678 39,000  Level FlightAware Transoceanic
07:55AM 42.5649 174.7151 68° East 589 678 39,000  Level FlightAware Transoceanic
07:56AM 42.6245 174.9137 68° East 589 678 39,000  Level FlightAware Transoceanic
07:57AM 42.6838 175.1126 68° East 589 678 39,000  Level FlightAware Transoceanic
07:58AM 42.7427 175.3120 68° East 589 678 39,000  Level FlightAware Transoceanic
07:58AM 42.8167 175.5833 68° East 595 685 39,000  Level Oakland Oceanic (ODAPS)
07:59AM 42.8013 175.5117 68° East 589 678 39,000  Level FlightAware Transoceanic
08:00AM 42.8596 175.7119 68° East 589 678 39,000  Level FlightAware Transoceanic
08:01AM 42.9175 175.9124 69° East 589 678 39,000  Level FlightAware Transoceanic
08:02AM 42.9750 176.1132 69° East 589 678 39,000  Level FlightAware Transoceanic
08:03AM 43.0322 176.3145 69° East 589 678 39,000  Level FlightAware Transoceanic
08:04AM 43.0891 176.5161 69° East 589 678 39,000  Level FlightAware Transoceanic
08:05AM 43.1720 176.8275 69° East 595 685 39,000  Level FlightAware Transoceanic
08:06AM 43.2299 177.0363 69° East 595 685 39,000  Level FlightAware Transoceanic
08:07AM 43.2874 177.2455 69° East 595 685 39,000  Level FlightAware Transoceanic
08:08AM 43.3446 177.4550 70° East 595 685 39,000  Level FlightAware Transoceanic
08:09AM 43.4013 177.6650 70° East 595 685 39,000  Level FlightAware Transoceanic
08:10AM 43.4577 177.8753 70° East 595 685 39,000  Level FlightAware Transoceanic
08:11AM 43.5137 178.0860 70° East 595 685 39,000  Level FlightAware Transoceanic
08:12AM 43.5693 178.2971 70° East 595 685 39,000  Level FlightAware Transoceanic
08:12AM 43.6333 178.5167 71° East 599 689 39,000  Level Oakland Oceanic (ODAPS)
08:13AM 43.6245 178.5087 70° East 595 685 39,000  Level FlightAware Transoceanic
08:14AM 43.6794 178.7206 70° East 595 685 39,000  Level FlightAware Transoceanic
08:15AM 43.7338 178.9328 71° East 595 685 39,000  Level FlightAware Transoceanic
08:16AM 43.7878 179.1455 71° East 595 685 39,000  Level FlightAware Transoceanic
08:16AM 43.8167 179.2833 70° East 600 690 39,000  Level Oakland Oceanic (ODAPS)
08:17AM 43.8415 179.3586 71° East 595 685 39,000  Level FlightAware Transoceanic
08:18AM 43.8947 179.5720 71° East 595 685 39,000  Level FlightAware Transoceanic
08:19AM 43.9488 179.7870 71° East 599 689 39,000  Level FlightAware Transoceanic
08:19AM 44.0000 180.0000 71° East 598 688 39,000  Level Oakland Oceanic (ODAPS)
08:20AM 44.0000 -180.0000 71° East 599 689 39,000  Level FlightAware Transoceanic
08:21AM 44.0537 -179.7857 71° East 599 689 39,000  Level FlightAware Transoceanic
08:22AM 44.1047 -179.5804 71° East 600 690 39,000  Level FlightAware Transoceanic
08:23AM 44.1565 -179.3700 71° East 600 690 39,000  Level FlightAware Transoceanic
08:24AM 44.2079 -179.1593 71° East 600 690 39,000  Level FlightAware Transoceanic
08:25AM 44.2705 -178.9001 71° East 598 688 39,000  Level FlightAware Transoceanic
08:26AM 44.3233 -178.6790 72° East 598 688 39,000  Level FlightAware Transoceanic
08:26AM 44.3667 -178.4667 72° East 598 688 39,000  Level Oakland Oceanic (ODAPS)
08:27AM 44.3757 -178.4574 72° East 598 688 39,000  Level FlightAware Transoceanic
08:28AM 44.4276 -178.2354 72° East 598 688 39,000  Level FlightAware Transoceanic
08:29AM 44.4792 -178.0131 72° East 598 688 39,000  Level FlightAware Transoceanic
08:30AM 44.5303 -177.7903 72° East 598 688 39,000  Level FlightAware Transoceanic
08:31AM 44.5809 -177.5672 72° East 598 688 39,000  Level FlightAware Transoceanic
08:32AM 44.6311 -177.3436 73° East 598 688 39,000  Level FlightAware Transoceanic
08:33AM 44.7140 -176.9446 73° East 598 688 39,000  Level FlightAware Transoceanic
08:34AM 44.7620 -176.7257 73° East 598 688 39,000  Level FlightAware Transoceanic
08:35AM 44.8095 -176.5064 73° East 598 688 39,000  Level FlightAware Transoceanic
08:36AM 44.8566 -176.2867 73° East 598 688 39,000  Level FlightAware Transoceanic
08:37AM 44.9033 -176.0668 73° East 598 688 39,000  Level FlightAware Transoceanic
08:38AM 44.9496 -175.8464 74° East 598 688 39,000  Level FlightAware Transoceanic
08:39AM 44.9955 -175.6257 74° East 598 688 39,000  Level FlightAware Transoceanic
08:40AM 45.0409 -175.4046 74° East 598 688 39,000  Level FlightAware Transoceanic
08:41AM 45.0859 -175.1832 74° East 598 688 39,000  Level FlightAware Transoceanic
08:42AM 45.1305 -174.9615 74° East 598 688 39,000  Level FlightAware Transoceanic
08:43AM 45.1746 -174.7394 74° East 598 688 39,000  Level FlightAware Transoceanic
08:43AM 45.0500 -175.3833 74° East 596 686 39,000  Level Oakland Oceanic (ODAPS)
08:44AM 45.2183 -174.5170 74° East 598 688 39,000  Level FlightAware Transoceanic
08:45AM 45.2616 -174.2942 75° East 598 688 39,000  Level FlightAware Transoceanic
08:46AM 45.3044 -174.0711 75° East 598 688 39,000  Level FlightAware Transoceanic
08:47AM 45.3468 -173.8476 75° East 598 688 39,000  Level FlightAware Transoceanic
08:48AM 45.3888 -173.6238 75° East 598 688 39,000  Level FlightAware Transoceanic
08:49AM 45.4358 -173.3861 75° East 596 686 39,000  Level FlightAware Transoceanic
08:50AM 45.4765 -173.1625 76° East 596 686 39,000  Level FlightAware Transoceanic
08:51AM 45.5168 -172.9386 76° East 596 686 39,000  Level FlightAware Transoceanic
08:52AM 45.5566 -172.7144 76° East 596 686 39,000  Level FlightAware Transoceanic
08:53AM 45.5960 -172.4899 76° East 596 686 39,000  Level FlightAware Transoceanic
08:54AM 45.6350 -172.2650 76° East 596 686 39,000  Level FlightAware Transoceanic
08:54AM 45.6333 -172.2500 76° East 590 679 39,000  Level Oakland Oceanic (ODAPS)
08:55AM 45.6735 -172.0399 76° East 596 686 39,000  Level FlightAware Transoceanic
08:56AM 45.7115 -171.8144 76° East 596 686 39,000  Level FlightAware Transoceanic
08:57AM 45.7492 -171.5887 77° East 596 686 39,000  Level FlightAware Transoceanic
08:58AM 45.7863 -171.3626 77° East 596 686 39,000  Level FlightAware Transoceanic
08:59AM 45.8231 -171.1362 77° East 596 686 39,000  Level FlightAware Transoceanic
09:00AM 45.8586 -170.9035 77° East 590 679 39,000  Level FlightAware Transoceanic
09:01AM 45.8946 -170.6781 77° East 590 679 39,000  Level FlightAware Transoceanic
09:02AM 45.9302 -170.4523 77° East 590 679 39,000  Level FlightAware Transoceanic
09:03AM 45.9653 -170.2263 77° East 590 679 39,000  Level FlightAware Transoceanic
09:04AM 46.0000 -170.0000 86° East 590 679 39,000 660 Level FlightAware Transoceanic
09:04AM 46.0000 -170.0000 86° East 570 656 40,000  Climbing Oakland Oceanic (ODAPS)
09:05AM 46.0095 -169.7783 87° East 590 679 39,000 -660 Descending FlightAware Transoceanic
09:06AM 46.0185 -169.5566 87° East 590 679 39,000  Level FlightAware Transoceanic
09:07AM 46.0271 -169.3347 87° East 590 679 39,000  Level FlightAware Transoceanic
09:08AM 46.0353 -169.1129 87° East 590 679 39,000 780 Level FlightAware Transoceanic
09:08AM 46.0333 -169.1333 87° East 573 659 40,000  Climbing Oakland Oceanic (ODAPS)
09:09AM 46.0431 -168.8909 87° East 590 679 39,000  Descending FlightAware Transoceanic
09:10AM 46.0514 -168.6386 87° East 570 656 40,000 480 Climbing FlightAware Transoceanic
09:11AM 46.0584 -168.4115 88° East 570 656 40,000  Level FlightAware Transoceanic
09:12AM 46.0649 -168.1843 88° East 570 656 40,000  Level FlightAware Transoceanic
09:13AM 46.0710 -167.9571 88° East 570 656 40,000  Level FlightAware Transoceanic
09:14AM 46.0747 -167.7644 88° East 573 659 40,000  Level FlightAware Transoceanic
09:15AM 46.0801 -167.5361 88° East 573 659 40,000  Level FlightAware Transoceanic
09:16AM 46.0849 -167.3077 88° East 573 659 40,000  Level FlightAware Transoceanic
09:17AM 46.0893 -167.0793 88° East 573 659 40,000  Level FlightAware Transoceanic
09:18AM 46.0933 -166.8508 89° East 573 659 40,000  Level FlightAware Transoceanic
09:19AM 46.0968 -166.6224 89° East 573 659 40,000  Level FlightAware Transoceanic
09:20AM 46.0998 -166.3939 89° East 573 659 40,000  Level FlightAware Transoceanic
09:21AM 46.1024 -166.1653 89° East 573 659 40,000  Level FlightAware Transoceanic
09:22AM 46.1045 -165.9368 89° East 573 659 40,000  Level FlightAware Transoceanic
09:22AM 46.1000 -165.9333 89° East 577 664 40,000  Level Oakland Oceanic (ODAPS)
09:23AM 46.1062 -165.7082 89° East 573 659 40,000  Level FlightAware Transoceanic
09:24AM 46.1074 -165.4796 90° East 573 659 40,000  Level FlightAware Transoceanic
09:25AM 46.1082 -165.2511 90° East 573 659 40,000  Level FlightAware Transoceanic
09:26AM 46.1085 -165.0225 90° East 573 659 40,000  Level FlightAware Transoceanic
09:27AM 46.1083 -164.7939 90° East 573 659 40,000  Level FlightAware Transoceanic
09:28AM 46.1042 -164.5627 90° East 577 664 40,000  Level FlightAware Transoceanic
09:29AM 46.1033 -164.3343 90° East 577 664 40,000  Level FlightAware Transoceanic
09:30AM 46.1020 -164.1059 91° East 577 664 40,000  Level FlightAware Transoceanic
09:31AM 46.1002 -163.8774 91° East 577 664 40,000  Level FlightAware Transoceanic
09:32AM 46.0979 -163.6490 91° East 577 664 40,000  Level FlightAware Transoceanic
09:33AM 46.0952 -163.4207 91° East 577 664 40,000  Level FlightAware Transoceanic
09:34AM 46.0920 -163.1923 91° East 577 664 40,000  Level FlightAware Transoceanic
09:35AM 46.0884 -162.9640 91° East 577 664 40,000  Level FlightAware Transoceanic
09:35AM 46.0833 -162.7333 92° East 566 651 40,000  Level Oakland Oceanic (ODAPS)
09:36AM 46.0843 -162.7357 92° East 577 664 40,000  Level FlightAware Transoceanic
09:37AM 46.0798 -162.5074 92° East 577 664 40,000  Level FlightAware Transoceanic
09:38AM 46.0748 -162.2792 92° East 577 664 40,000  Level FlightAware Transoceanic
09:39AM 46.0694 -162.0510 92° East 577 664 40,000  Level FlightAware Transoceanic
09:40AM 46.0635 -161.8229 92° East 577 664 40,000  Level FlightAware Transoceanic
09:41AM 46.0571 -161.5948 92° East 577 664 40,000  Level FlightAware Transoceanic
09:42AM 46.0498 -161.3656 93° East 566 651 40,000  Level FlightAware Transoceanic
09:43AM 46.0426 -161.1379 93° East 566 651 40,000  Level FlightAware Transoceanic
09:44AM 46.0350 -160.9102 93° East 566 651 40,000  Level FlightAware Transoceanic
09:45AM 46.0269 -160.6825 93° East 566 651 40,000  Level FlightAware Transoceanic
09:46AM 46.0184 -160.4549 93° East 566 651 40,000  Level FlightAware Transoceanic
09:47AM 46.0094 -160.2274 93° East 566 651 40,000  Level FlightAware Transoceanic
09:48AM 46.0000 -160.0000 102° East 566 651 40,000  Level FlightAware Transoceanic
09:48AM 46.0000 -160.0000 102° East 559 643 40,000  Level Oakland Oceanic (ODAPS)
09:49AM 45.9681 -159.7893 102° East 566 651 40,000  Level FlightAware Transoceanic
09:49AM 45.9500 -159.6333 103° East 559 643 40,000  Level Oakland Oceanic (ODAPS)
09:50AM 45.9358 -159.5788 103° East 566 651 40,000  Level FlightAware Transoceanic
09:51AM 45.9031 -159.3686 103° East 566 651 40,000  Level FlightAware Transoceanic
09:52AM 45.8701 -159.1586 103° East 566 651 40,000  Level FlightAware Transoceanic
09:53AM 45.8367 -158.9489 103° East 566 651 40,000  Level FlightAware Transoceanic
09:54AM 45.7941 -158.6860 103° East 559 643 40,000  Level FlightAware Transoceanic
09:55AM 45.7584 -158.4679 103° East 559 643 40,000  Level FlightAware Transoceanic
09:56AM 45.7376 -158.3123 103° East 559 643 40,000  Level FlightAware Transoceanic
09:57AM 45.7007 -158.0932 104° East 559 643 40,000  Level FlightAware Transoceanic
09:58AM 45.6634 -157.8743 104° East 559 643 40,000  Level FlightAware Transoceanic
09:59AM 45.6257 -157.6557 104° East 559 643 40,000  Level FlightAware Transoceanic
10:00AM 45.5876 -157.4374 104° East 559 643 40,000  Level FlightAware Transoceanic
10:01AM 45.5490 -157.2194 104° East 559 643 40,000  Level FlightAware Transoceanic
10:02AM 45.5101 -157.0017 104° East 559 643 40,000  Level FlightAware Transoceanic
10:03AM 45.4707 -156.7843 105° East 559 643 40,000  Level FlightAware Transoceanic
10:03AM 45.4500 -156.6833 105° East 555 639 40,000  Level Oakland Oceanic (ODAPS)
10:04AM 45.4309 -156.5672 105° East 559 643 40,000  Level FlightAware Transoceanic
10:05AM 45.3907 -156.3504 105° East 559 643 40,000  Level FlightAware Transoceanic
10:06AM 45.3501 -156.1339 105° East 559 643 40,000  Level FlightAware Transoceanic
10:07AM 45.3091 -155.9178 105° East 559 643 40,000  Level FlightAware Transoceanic
10:08AM 45.2677 -155.7019 105° East 559 643 40,000  Level FlightAware Transoceanic
10:09AM 45.2494 -155.6174 105° East 555 639 40,000  Level FlightAware Transoceanic
10:10AM 45.2081 -155.4051 106° East 555 639 40,000  Level FlightAware Transoceanic
10:11AM 45.1664 -155.1932 106° East 555 639 40,000  Level FlightAware Transoceanic
10:12AM 45.1244 -154.9815 106° East 555 639 40,000  Level FlightAware Transoceanic
10:13AM 45.0819 -154.7702 106° East 555 639 40,000  Level FlightAware Transoceanic
10:14AM 45.0390 -154.5591 106° East 555 639 40,000  Level FlightAware Transoceanic
10:15AM 44.9958 -154.3484 106° East 555 639 40,000  Level FlightAware Transoceanic
10:16AM 44.9521 -154.1380 106° East 555 639 40,000  Level FlightAware Transoceanic
10:17AM 44.9081 -153.9280 107° East 555 639 40,000  Level FlightAware Transoceanic
10:17AM 44.8833 -153.8333 107° East 535 616 40,000  Level Oakland Oceanic (ODAPS)
10:18AM 44.8637 -153.7182 107° East 555 639 40,000  Level FlightAware Transoceanic
10:19AM 44.8189 -153.5088 107° East 555 639 40,000  Level FlightAware Transoceanic
10:20AM 44.7737 -153.2997 107° East 555 639 40,000  Level FlightAware Transoceanic
10:21AM 44.7282 -153.0910 107° East 555 639 40,000  Level FlightAware Transoceanic
10:22AM 44.6823 -152.8825 107° East 555 639 40,000  Level FlightAware Transoceanic
10:23AM 44.6319 -152.6712 107° East 535 616 40,000  Level FlightAware Transoceanic
10:24AM 44.5888 -152.4785 107° East 535 616 40,000  Level FlightAware Transoceanic
10:25AM 44.5454 -152.2861 108° East 535 616 40,000  Level FlightAware Transoceanic
10:26AM 44.5017 -152.0940 108° East 535 616 40,000  Level FlightAware Transoceanic
10:27AM 44.4577 -151.9022 108° East 535 616 40,000  Level FlightAware Transoceanic
10:28AM 44.4133 -151.7106 108° East 535 616 40,000  Level FlightAware Transoceanic
10:29AM 44.3687 -151.5194 108° East 535 616 40,000  Level FlightAware Transoceanic
10:30AM 44.3237 -151.3284 108° East 535 616 40,000  Level FlightAware Transoceanic
10:31AM 44.2784 -151.1378 108° East 535 616 40,000  Level FlightAware Transoceanic
10:31AM 44.2667 -151.1000 108° East 530 610 40,000  Level Oakland Oceanic (ODAPS)
10:32AM 44.2328 -150.9474 109° East 535 616 40,000  Level FlightAware Transoceanic
10:33AM 44.1869 -150.7573 109° East 535 616 40,000  Level FlightAware Transoceanic
10:34AM 44.1406 -150.5675 109° East 535 616 40,000  Level FlightAware Transoceanic
10:35AM 44.0941 -150.3781 109° East 535 616 40,000  Level FlightAware Transoceanic
10:36AM 44.0472 -150.1889 109° East 535 616 40,000  Level FlightAware Transoceanic
10:37AM 44.0000 -150.0000 94° East 530 610 40,000  Level FlightAware Transoceanic
10:37AM 44.0000 -150.0000 94° East 519 597 40,000  Level Oakland Oceanic (ODAPS)
10:38AM 43.9895 -149.8122 95° East 530 610 40,000  Level FlightAware Transoceanic
10:39AM 43.9787 -149.6245 95° East 530 610 40,000  Level FlightAware Transoceanic
10:40AM 43.9675 -149.4368 95° East 530 610 40,000  Level FlightAware Transoceanic
10:41AM 43.9561 -149.2492 95° East 530 610 40,000  Level FlightAware Transoceanic
10:42AM 43.9444 -149.0617 95° East 530 610 40,000  Level FlightAware Transoceanic
10:43AM 43.9280 -148.8081 95° East 519 597 40,000  Level FlightAware Transoceanic
10:44AM 43.9148 -148.6098 95° East 519 597 40,000  Level FlightAware Transoceanic
10:45AM 43.9013 -148.4115 95° East 519 597 40,000  Level FlightAware Transoceanic
10:45AM 43.9000 -148.3833 96° East 509 586 40,000  Level Oakland Oceanic (ODAPS)
10:46AM 43.8874 -148.2133 96° East 519 597 40,000  Level FlightAware Transoceanic
10:47AM 43.8731 -148.0152 96° East 519 597 40,000  Level FlightAware Transoceanic
10:48AM 43.8586 -147.8172 96° East 519 597 40,000  Level FlightAware Transoceanic
10:49AM 43.8437 -147.6193 96° East 519 597 40,000  Level FlightAware Transoceanic
10:50AM 43.8284 -147.4216 96° East 519 597 40,000  Level FlightAware Transoceanic
10:51AM 43.8136 -147.2266 96° East 509 586 40,000  Level FlightAware Transoceanic
10:52AM 43.7981 -147.0341 96° East 509 586 40,000  Level FlightAware Transoceanic
10:53AM 43.7822 -146.8418 97° East 509 586 40,000  Level FlightAware Transoceanic
10:54AM 43.7661 -146.6495 97° East 509 586 40,000  Level FlightAware Transoceanic
10:55AM 43.7496 -146.4573 97° East 509 586 40,000  Level FlightAware Transoceanic
10:56AM 43.7327 -146.2653 97° East 509 586 40,000  Level FlightAware Transoceanic
10:57AM 43.7156 -146.0734 97° East 509 586 40,000  Level FlightAware Transoceanic
10:58AM 43.6982 -145.8815 97° East 509 586 40,000  Level FlightAware Transoceanic
10:59AM 43.6804 -145.6898 97° East 509 586 40,000  Level FlightAware Transoceanic
10:59AM 43.6833 -145.6833 97° East 505 581 40,000  Level Oakland Oceanic (ODAPS)
11:00AM 43.6623 -145.4982 98° East 509 586 40,000  Level FlightAware Transoceanic
11:01AM 43.6438 -145.3067 98° East 509 586 40,000  Level FlightAware Transoceanic
11:02AM 43.6251 -145.1154 98° East 509 586 40,000  Level FlightAware Transoceanic
11:03AM 43.6060 -144.9241 98° East 509 586 40,000  Level FlightAware Transoceanic
11:04AM 43.5867 -144.7330 98° East 509 586 40,000  Level FlightAware Transoceanic
11:05AM 43.5693 -144.5368 98° East 505 581 40,000  Level FlightAware Transoceanic
11:06AM 43.5492 -144.3461 98° East 505 581 40,000  Level FlightAware Transoceanic
11:07AM 43.5287 -144.1556 98° East 505 581 40,000  Level FlightAware Transoceanic
11:08AM 43.5080 -143.9652 99° East 505 581 40,000  Level FlightAware Transoceanic
11:09AM 43.4869 -143.7749 99° East 505 581 40,000  Level FlightAware Transoceanic
11:10AM 43.4655 -143.5848 99° East 505 581 40,000  Level FlightAware Transoceanic
11:11AM 43.4438 -143.3948 99° East 505 581 40,000  Level FlightAware Transoceanic
11:12AM 43.4218 -143.2050 99° East 505 581 40,000  Level FlightAware Transoceanic
11:13AM 43.3995 -143.0152 99° East 505 581 40,000  Level FlightAware Transoceanic
11:13AM 43.4167 -143.1167 99° East 483 556 40,000  Level Oakland Oceanic (ODAPS)
11:14AM 43.3769 -142.8257 99° East 505 581 40,000  Level FlightAware Transoceanic
11:15AM 43.3539 -142.6362 100° East 505 581 40,000  Level FlightAware Transoceanic
11:16AM 43.3306 -142.4469 100° East 505 581 40,000  Level FlightAware Transoceanic
11:17AM 43.3071 -142.2578 100° East 505 581 40,000  Level FlightAware Transoceanic
11:18AM 43.2832 -142.0688 100° East 505 581 40,000  Level FlightAware Transoceanic
11:19AM 43.2793 -142.0119 100° East 483 556 40,000  Level FlightAware Transoceanic
11:20AM 43.2553 -141.8282 100° East 483 556 40,000  Level FlightAware Transoceanic
11:21AM 43.2311 -141.6447 100° East 483 556 40,000  Level FlightAware Transoceanic
11:22AM 43.2066 -141.4613 100° East 483 556 40,000  Level FlightAware Transoceanic
11:23AM 43.1818 -141.2782 101° East 483 556 40,000  Level FlightAware Transoceanic
11:24AM 43.1567 -141.0951 101° East 483 556 40,000  Level FlightAware Transoceanic
11:25AM 43.1313 -140.9122 101° East 483 556 40,000  Level FlightAware Transoceanic
11:26AM 43.1056 -140.7294 101° East 483 556 40,000  Level FlightAware Transoceanic
11:26AM 43.0833 -140.6333 100° East 488 562 40,000  Level Oakland Oceanic (ODAPS)
11:27AM 43.0797 -140.5468 101° East 483 556 40,000  Level FlightAware Transoceanic
11:28AM 43.0534 -140.3644 101° East 483 556 40,000  Level FlightAware Transoceanic
11:29AM 43.0268 -140.1821 101° East 483 556 40,000  Level FlightAware Transoceanic
11:30AM 43.0000 -140.0000 108° East 483 556 40,000  Level FlightAware Transoceanic
11:30AM 43.0000 -140.0000 108° East 483 556 40,000  Level Oakland Oceanic (ODAPS)
11:31AM 42.9580 -139.8287 109° East 483 556 40,000  Level FlightAware Transoceanic
11:32AM 42.9158 -139.6577 109° East 483 556 40,000  Level FlightAware Transoceanic
11:33AM 42.8733 -139.4868 109° East 488 562 40,000  Level FlightAware Transoceanic
11:34AM 42.8306 -139.3163 109° East 488 562 40,000  Level FlightAware Transoceanic
11:35AM 42.7876 -139.1459 109° East 488 562 40,000  Level FlightAware Transoceanic
11:36AM 42.7400 -138.9588 109° East 483 556 40,000  Level FlightAware Transoceanic
11:37AM 42.6958 -138.7861 109° East 483 556 40,000  Level FlightAware Transoceanic
11:38AM 42.6513 -138.6137 109° East 483 556 40,000  Level FlightAware Transoceanic
11:39AM 42.6065 -138.4415 110° East 483 556 40,000  Level FlightAware Transoceanic
11:40AM 42.5615 -138.2696 110° East 483 556 40,000  Level FlightAware Transoceanic
11:40AM 42.5667 -138.2667 110° East 484 557 40,000  Level Oakland Oceanic (ODAPS)
11:41AM 42.5163 -138.0979 110° East 483 556 40,000  Level FlightAware Transoceanic
11:42AM 42.4707 -137.9265 110° East 483 556 40,000  Level FlightAware Transoceanic
11:43AM 42.4249 -137.7553 110° East 483 556 40,000  Level FlightAware Transoceanic
11:44AM 42.3789 -137.5843 110° East 483 556 40,000  Level FlightAware Transoceanic
11:45AM 42.3326 -137.4136 110° East 483 556 40,000  Level FlightAware Transoceanic
11:46AM 42.2861 -137.2432 110° East 483 556 40,000  Level FlightAware Transoceanic
11:47AM 42.2906 -137.2406 110° East 484 557 40,000  Level FlightAware Transoceanic
11:48AM 42.2437 -137.0704 110° East 484 557 40,000  Level FlightAware Transoceanic
11:49AM 42.1965 -136.9006 111° Southeast 484 557 40,000  Level FlightAware Transoceanic
11:50AM 42.1491 -136.7310 111° Southeast 484 557 40,000  Level FlightAware Transoceanic
11:51AM 42.1015 -136.5616 111° Southeast 484 557 40,000  Level FlightAware Transoceanic
11:52AM 42.0536 -136.3925 111° Southeast 484 557 40,000  Level FlightAware Transoceanic
11:53AM 42.0054 -136.2236 111° Southeast 484 557 40,000  Level FlightAware Transoceanic
11:54AM 41.9570 -136.0550 111° Southeast 484 557 40,000  Level FlightAware Transoceanic
11:54AM 41.9167 -135.9167 111° Southeast 488 562 40,000  Level Oakland Oceanic (ODAPS)
11:55AM 41.9084 -135.8866 111° Southeast 484 557 40,000  Level FlightAware Transoceanic
11:56AM 41.8595 -135.7186 111° Southeast 484 557 40,000  Level FlightAware Transoceanic
11:57AM 41.8104 -135.5507 112° Southeast 484 557 40,000  Level FlightAware Transoceanic
11:58AM 41.7610 -135.3832 112° Southeast 484 557 40,000  Level FlightAware Transoceanic
11:59AM 41.7114 -135.2158 112° Southeast 484 557 40,000  Level FlightAware Transoceanic
12:00PM 41.6615 -135.0488 112° Southeast 484 557 40,000  Level FlightAware Transoceanic
12:01PM 41.5680 -134.7394 112° Southeast 488 562 40,000  Level FlightAware Transoceanic
12:02PM 41.5172 -134.5722 112° Southeast 488 562 40,000  Level FlightAware Transoceanic
12:03PM 41.4662 -134.4053 112° Southeast 488 562 40,000  Level FlightAware Transoceanic
12:04PM 41.4149 -134.2387 112° Southeast 488 562 40,000  Level FlightAware Transoceanic
12:05PM 41.3634 -134.0724 112° Southeast 488 562 40,000  Level FlightAware Transoceanic
12:06PM 41.3116 -133.9063 113° Southeast 488 562 40,000  Level FlightAware Transoceanic
12:07PM 41.2596 -133.7405 113° Southeast 488 562 40,000  Level FlightAware Transoceanic
12:08PM 41.2074 -133.5749 113° Southeast 488 562 40,000  Level FlightAware Transoceanic
12:08PM 41.2000 -133.5667 113° Southeast 498 573 40,000  Level Oakland Oceanic (ODAPS)
12:09PM 41.1549 -133.4096 113° Southeast 488 562 40,000  Level FlightAware Transoceanic
12:10PM 41.1022 -133.2446 113° Southeast 488 562 40,000  Level FlightAware Transoceanic
12:11PM 41.0493 -133.0798 113° Southeast 488 562 40,000  Level FlightAware Transoceanic
12:12PM 40.9962 -132.9153 113° Southeast 488 562 40,000  Level FlightAware Transoceanic
12:13PM 40.9427 -132.7511 113° Southeast 488 562 40,000  Level FlightAware Transoceanic
12:14PM 40.8891 -132.5871 113° Southeast 488 562 40,000  Level FlightAware Transoceanic
12:15PM 40.8301 -132.4179 113° Southeast 498 573 40,000  Level FlightAware Transoceanic
12:16PM 40.7764 -132.2549 114° Southeast 498 573 40,000  Level FlightAware Transoceanic
12:17PM 40.7224 -132.0921 114° Southeast 498 573 40,000  Level FlightAware Transoceanic
12:18PM 40.6682 -131.9296 114° Southeast 498 573 40,000  Level FlightAware Transoceanic
12:19PM 40.6137 -131.7673 114° Southeast 498 573 40,000  Level FlightAware Transoceanic
12:20PM 40.5590 -131.6053 114° Southeast 498 573 40,000  Level FlightAware Transoceanic
12:21PM 40.5041 -131.4436 114° Southeast 498 573 40,000  Level FlightAware Transoceanic
12:22PM 40.4490 -131.2821 114° Southeast 498 573 40,000  Level FlightAware Transoceanic
12:22PM 40.4333 -131.2333 114° Southeast 508 585 40,000  Level Oakland Oceanic (ODAPS)
12:23PM 40.3937 -131.1209 114° Southeast 498 573 40,000  Level FlightAware Transoceanic
12:24PM 40.3381 -130.9600 114° Southeast 498 573 40,000  Level FlightAware Transoceanic
12:25PM 40.2823 -130.7993 115° Southeast 498 573 40,000  Level FlightAware Transoceanic
12:26PM 40.2263 -130.6389 115° Southeast 498 573 40,000  Level FlightAware Transoceanic
12:27PM 40.1700 -130.4788 115° Southeast 498 573 40,000  Level FlightAware Transoceanic
12:28PM 40.1096 -130.3069 115° Southeast 508 585 40,000  Level FlightAware Transoceanic
12:29PM 40.0549 -130.1533 115° Southeast 508 585 40,000  Level FlightAware Transoceanic
12:29PM 40.0000 -130.0000 122° Southeast 499 574 40,000  Level Oakland Oceanic (ODAPS)
12:30PM 40.0000 -130.0000 122° Southeast 508 585 40,000  Level FlightAware Transoceanic
12:31PM 39.9212 -129.8388 123° Southeast 508 585 40,000  Level FlightAware Transoceanic
12:32PM 39.8423 -129.6780 123° Southeast 508 585 40,000  Level FlightAware Transoceanic
12:33PM 39.7631 -129.5175 123° Southeast 508 585 40,000  Level FlightAware Transoceanic
12:34PM 39.6837 -129.3575 123° Southeast 508 585 40,000  Level FlightAware Transoceanic
12:35PM 39.6040 -129.1978 123° Southeast 508 585 40,000  Level FlightAware Transoceanic
12:36PM 39.5481 -129.0862 123° Southeast 499 574 40,000  Level FlightAware Transoceanic
12:36PM 39.5167 -129.0167 123° Southeast 499 574 40,000  Level Oakland Oceanic (ODAPS)
12:37PM 39.4721 -128.9350 123° Southeast 499 574 40,000  Level FlightAware Transoceanic
12:38PM 39.3959 -128.7842 123° Southeast 499 574 40,000  Level FlightAware Transoceanic
12:39PM 39.3195 -128.6338 123° Southeast 499 574 40,000  Level FlightAware Transoceanic
12:40PM 39.2430 -128.4836 123° Southeast 499 574 40,000  Level FlightAware Transoceanic
12:41PM 39.1662 -128.3338 124° Southeast 499 574 40,000  Level FlightAware Transoceanic
12:42PM 39.0709 -128.1451 124° Southeast 499 574 40,000  Level FlightAware Transoceanic
12:43PM 38.9960 -128.0009 124° Southeast 499 574 40,000  Level FlightAware Transoceanic
12:44PM 38.9209 -127.8570 124° Southeast 499 574 40,000  Level FlightAware Transoceanic
12:45PM 38.8456 -127.7134 124° Southeast 499 574 40,000  Level FlightAware Transoceanic
12:46PM 38.7702 -127.5701 124° Southeast 499 574 40,000  Level FlightAware Transoceanic
12:46PM 38.6994 -127.4367 111° Southeast 502 578 40,000  Level Oakland Center
12:47PM 38.6946 -127.4271 124° Southeast 499 574 40,000  Level FlightAware Transoceanic
12:47PM 38.6219 -127.2886 124° Southeast 502 578 40,000  Level Oakland Center
12:48PM 38.6188 -127.2844 124° Southeast 499 574 40,000  Level FlightAware Transoceanic
12:48PM 38.5422 -127.1411 125° Southeast 505 581 40,000  Level Oakland Center
12:49PM 38.5428 -127.1421 124° Southeast 499 574 40,000  Level FlightAware Transoceanic
12:50PM 38.4667 -127.0000 111° Southeast 499 574 40,000  Level FlightAware Transoceanic
12:51PM 38.4158 -126.8324 111° Southeast 499 574 40,000  Level FlightAware Transoceanic
12:52PM 38.3646 -126.6650 111° Southeast 499 574 40,000  Level FlightAware Transoceanic
12:54PM 38.1950 -126.1180 125° Southeast 509 586 40,000  Level FlightAware
12:55PM 38.1680 -126.0320 112° Southeast 509 586 40,000  Level FlightAware
12:56PM 38.1360 -125.9290 112° Southeast 510 587 40,000  Level FlightAware
12:56PM 38.1060 -125.8350 112° Southeast 509 586 40,000  Level FlightAware
12:57PM 38.0760 -125.7380 111° Southeast 510 587 40,000  Level FlightAware
12:57PM 38.0430 -125.6350 112° Southeast 513 590 40,000  Level FlightAware
12:58PM 38.0150 -125.5470 112° Southeast 512 589 40,000  Level FlightAware
12:58PM 37.9860 -125.4470 110° East 510 587 40,000  Level FlightAware
12:59PM 37.9570 -125.3410 109° East 511 588 40,000  Level FlightAware
01:00PM 37.9310 -125.2410 108° East 512 589 40,000  Level FlightAware
01:00PM 37.9060 -125.1510 109° East 512 589 40,000  Level FlightAware
01:01PM 37.8790 -125.0500 109° East 511 588 40,000  Level FlightAware
01:01PM 37.8510 -124.9470 109° East 507 583 40,000  Level FlightAware
01:02PM 37.8240 -124.8510 110° East 507 583 40,000  Level FlightAware
01:03PM 37.7970 -124.7540 109° East 503 579 40,000  Level FlightAware
01:03PM 37.7740 -124.6670 108° East 502 578 40,000  Level FlightAware
01:04PM 37.7450 -124.5650 110° East 501 577 40,000  Level FlightAware
01:04PM 37.7180 -124.4670 109° East 501 577 40,000  Level FlightAware
01:05PM 37.6900 -124.3660 109° East 502 578 40,000  Level FlightAware
01:06PM 37.6620 -124.2670 110° East 504 580 40,000 60 Level FlightAware
01:06PM 37.6370 -124.1780 110° East 510 587 40,100 420 Climbing FlightAware
01:07PM 37.6090 -124.0770 109° East 513 590 40,500 720 Climbing FlightAware
01:07PM 37.5790 -123.9720 110° East 510 587 41,000 420 Climbing FlightAware
01:08PM 37.5540 -123.8860 110° East 504 580 41,000  Level FlightAware
01:08PM 37.5130 -123.7820 116° Southeast 505 581 41,000  Level FlightAware
01:09PM 37.4760 -123.7020 120° Southeast 506 582 41,000  Level FlightAware
01:10PM 37.4360 -123.6160 120° Southeast 506 582 41,000  Level FlightAware
01:10PM 37.3910 -123.5180 120° Southeast 508 585 41,000  Level FlightAware
01:11PM 37.3470 -123.4250 121° Southeast 507 583 41,000  Level FlightAware
01:11PM 37.3000 -123.3240 120° Southeast 507 583 41,000  Level FlightAware
01:12PM 37.2570 -123.2330 121° Southeast 506 582 41,000  Level FlightAware
01:13PM 37.2190 -123.1520 120° Southeast 506 582 41,000  Level FlightAware
01:13PM 37.1730 -123.0560 121° Southeast 507 583 41,000  Level FlightAware
01:14PM 37.1310 -122.9670 121° Southeast 509 586 41,000  Level FlightAware
01:14PM 37.0920 -122.8840 120° Southeast 508 585 41,000  Level FlightAware
01:15PM 37.0490 -122.7940 121° Southeast 509 586 41,000  Level FlightAware
01:16PM 37.0050 -122.7030 121° Southeast 509 586 41,000  Level FlightAware
01:16PM 36.9630 -122.6150 121° Southeast 510 587 41,000  Level FlightAware
01:17PM 36.9278 -122.5410 121° Southeast 508 585 41,000  Level FlightAware ADS-B
01:17PM 36.8770 -122.4360 121° Southeast 503 579 41,000  Level FlightAware
01:18PM 36.8340 -122.3470 121° Southeast 491 565 41,000  Level FlightAware
01:18PM 36.7990 -122.2750 121° Southeast 485 558 41,000  Level FlightAware
01:19PM 36.7550 -122.1830 121° Southeast 483 556 41,000  Level FlightAware
01:19PM 36.7315 -122.1350 121° Southeast 485 558 41,000  Level FlightAware ADS-B
01:20PM 36.6820 -122.0340 121° Southeast 485 558 41,000  Level FlightAware
01:21PM 36.6410 -121.9500 121° Southeast 485 558 41,000  Level FlightAware
01:21PM 36.6020 -121.8710 122° Southeast 484 557 41,000  Level FlightAware
01:22PM 36.5609 -121.7870 121° Southeast 485 558 41,000  Level FlightAware ADS-B
01:22PM 36.5180 -121.7000 122° Southeast 482 555 41,000  Level FlightAware
01:23PM 36.4800 -121.6240 122° Southeast 481 554 41,000  Level FlightAware
01:24PM 36.4410 -121.5440 121° Southeast 481 554 41,000  Level FlightAware
01:24PM 36.4000 -121.4620 122° Southeast 481 554 41,000  Level FlightAware
01:25PM 36.3560 -121.3720 121° Southeast 481 554 41,000  Level FlightAware
01:25PM 36.3556 -121.3720 180° South 481 554 41,000  Level FlightAware ADS-B
01:26PM 36.2751 -121.2110 122° Southeast 482 555 41,000  Level FlightAware ADS-B
01:26PM 36.2350 -121.1310 122° Southeast 483 556 41,000  Level FlightAware
01:27PM 36.1880 -121.0460 124° Southeast 484 557 41,000  Level FlightAware
01:28PM 36.1430 -120.9770 129° Southeast 485 558 41,000  Level FlightAware
01:28PM 36.0920 -120.8990 129° Southeast 484 557 41,000  Level FlightAware
01:29PM 36.0420 -120.8230 129° Southeast 484 557 41,000  Level FlightAware
01:29PM 35.9900 -120.7430 129° Southeast 483 556 41,000  Level FlightAware
01:30PM 35.9450 -120.6740 129° Southeast 483 556 41,000  Level FlightAware
01:31PM 35.8910 -120.5920 129° Southeast 482 555 41,000  Level FlightAware
01:31PM 35.8480 -120.5270 129° Southeast 484 557 41,000  Level FlightAware
01:32PM 35.7960 -120.4480 129° Southeast 485 558 41,000  Level FlightAware
01:32PM 35.7450 -120.3720 130° Southeast 486 559 41,000  Level FlightAware
01:33PM 35.6970 -120.2990 129° Southeast 486 559 41,000  Level FlightAware
01:34PM 35.6450 -120.2210 129° Southeast 487 560 41,000  Level FlightAware
01:34PM 35.5920 -120.1430 130° Southeast 486 559 41,000 -1,260 Level FlightAware
01:35PM 35.5420 -120.0810 135° Southeast 495 570 39,600 -2,400 Descending FlightAware
01:35PM 35.4830 -120.0200 140° Southeast 496 571 38,300 -2,460 Descending FlightAware
01:36PM 35.4160 -119.9510 140° Southeast 496 571 36,700 -2,580 Descending FlightAware
01:36PM 35.3580 -119.8910 140° Southeast 485 558 35,400 -2,340 Descending FlightAware
01:37PM 35.2980 -119.8300 140° Southeast 450 518 34,000 -2,280 Descending FlightAware
01:38PM 35.2400 -119.7700 140° Southeast 427 491 32,600 -2,220 Descending FlightAware
01:38PM 35.1960 -119.7250 140° Southeast 423 487 31,600 -1,800 Descending FlightAware
01:39PM 35.1450 -119.6730 140° Southeast 425 489 30,700 -1,560 Descending FlightAware
01:39PM 35.0910 -119.6180 140° Southeast 421 484 29,800 -1,680 Descending FlightAware
01:40PM 35.0390 -119.5650 140° Southeast 417 480 28,800 -1,860 Descending FlightAware
01:41PM 34.9810 -119.5070 141° Southeast 443 510 27,600 -2,340 Descending FlightAware
01:41PM 34.9250 -119.4500 140° Southeast 453 521 26,000 -2,400 Descending FlightAware
01:42PM 34.8470 -119.3710 140° Southeast 448 516 24,300 -2,160 Descending FlightAware
01:43PM 34.7880 -119.3120 141° Southeast 441 507 23,000 -1,920 Descending FlightAware
01:43PM 34.7340 -119.2570 140° Southeast 431 496 22,000 -1,680 Descending FlightAware
01:44PM 34.6820 -119.2050 141° Southeast 422 486 21,100 -1,320 Descending FlightAware
01:44PM 34.6310 -119.1550 141° Southeast 423 487 20,500 -1,080 Descending FlightAware
01:45PM 34.5650 -119.0880 140° Southeast 416 479 19,700 -1,860 Descending FlightAware
01:46PM 34.5120 -119.0360 141° Southeast 402 463 18,100 -2,400 Descending FlightAware
01:46PM 34.4660 -118.9900 140° Southeast 398 458 17,000 -2,040 Descending FlightAware
01:47PM 34.4150 -118.9390 140° Southeast 389 448 15,800 -1,920 Descending FlightAware
01:47PM 34.3740 -118.9000 142° Southeast 382 440 14,900 -2,040 Descending FlightAware
01:48PM 34.3090 -118.8630 155° Southeast 365 420 13,400 -2,040 Descending FlightAware
01:48PM 34.2580 -118.8450 164° South 328 377 12,400 -1,200 Descending FlightAware
01:49PM 34.2070 -118.8260 163° South 312 359 12,000 -480 Descending FlightAware
01:50PM 34.1640 -118.8100 163° South 314 361 11,900 -120 Descending FlightAware
01:50PM 34.1130 -118.7920 164° South 315 362 11,900  Level FlightAware
01:51PM 34.0800 -118.7840 169° South 315 362 11,900 -660 Level FlightAware
01:51PM 34.0290 -118.7950 190° South 316 364 11,300 -960 Descending FlightAware
01:52PM 33.9910 -118.7850 168° South 309 356 10,900 -540 Descending FlightAware
01:52PM 33.9740 -118.7610 130° Southeast 301 346 10,900  Level FlightAware
01:52PM 33.9710 -118.7470 104° East 297 342 10,900  Level FlightAware
01:52PM 33.9700 -118.7340 95° East 296 341 10,900  Level FlightAware
01:53PM 33.9800 -118.6780 78° East 290 334 10,900 -240 Level FlightAware
01:53PM 34.0000 -118.6400 58° Northeast 290 334 10,700 -900 Descending FlightAware
01:54PM 34.0090 -118.5950 76° East 296 341 10,100 -1,320 Descending FlightAware
01:54PM 34.0090 -118.5530 90° East 297 342 9,500 -1,620 Descending FlightAware
01:54PM 34.0090 -118.5350 90° East 292 336 9,100 -2,580 Descending FlightAware
01:55PM 34.0100 -118.4970 88° East 288 331 8,000 -2,460 Descending FlightAware
01:55PM 34.0110 -118.4490 89° East 287 330 7,000 -2,100 Descending FlightAware
01:56PM 34.0140 -118.4150 84° East 274 315 6,300 -2,400 Descending FlightAware
01:56PM 34.0180 -118.3850 81° East 274 315 5,400 -1,800 Descending FlightAware
01:56PM 34.0210 -118.3540 83° East 250 288 5,100 -900 Descending FlightAware
01:57PM 34.0240 -118.3280 82° East 231 266 4,800 -1,020 Descending FlightAware
01:57PM 34.0280 -118.3020 79° East 206 237 4,400 -900 Descending FlightAware
01:57PM 34.0300 -118.2800 84° East 202 232 4,200 -900 Descending FlightAware
01:58PM 34.0330 -118.2570 81° East 203 234 3,800 -1,020 Descending FlightAware
01:58PM 34.0360 -118.2330 81° East 199 229 3,500 -840 Descending FlightAware
01:58PM 34.0300 -118.2120 109° East 190 219 3,200 -720 Descending FlightAware
01:58PM 34.0280 -118.2100 140° Southeast 189 217 3,200 -1,140 Level FlightAware
01:59PM 34.0210 -118.2070 160° South 186 214 3,000 -1,080 Descending FlightAware
01:59PM 34.0140 -118.2050 167° South 186 214 2,900 -780 Descending FlightAware
01:59PM 34.0010 -118.2040 176° South 184 212 2,700 -600 Descending FlightAware
01:59PM 33.9790 -118.2180 208° Southwest 187 215 2,500 -300 Descending FlightAware
02:00PM 33.9710 -118.2310 233° Southwest 190 219 2,500  Level FlightAware
02:00PM 33.9680 -118.2410 250° West 193 222 2,500 -600 Level FlightAware
02:00PM 33.9660 -118.2760 266° West 198 228 2,100 -900 Descending FlightAware
02:01PM 33.9610 -118.3100 260° West 161 185 1,500 -840 Descending FlightAware
02:01PM 33.9600 -118.3270 266° West 144 166 1,300 -420 Descending FlightAware
02:02PM 33.9570 -118.3590 264° West 142 163 1,100 -540 Descending FlightAware
02:03PM 33.9540 -118.3870 263° West 142 163 600 -780 Descending FlightAware